Coastal Nomad — WDC6439 — position and weather

sailwx.info

Track history (hours):
 
Tides and Currents Weather Stations Pressure Air Temp Water Temp Dewpoint Dewpoint Depression Visibility Wind Speed Wind Dir Waves Ship Positions

Coastal Nomad

Owner: Coastal Transportation, Inc., Seattle, WA. More information available from US FCC via Universal Licensing System and Coast Guard Vessel Documentation Center.

Last reported at 2015-Mar-01 03:33 UTC. Time now 2015-Mar-01 20:56 UTC.
Position N 50°52' W 127°50'.

Length 74 m; draft 4.9 m.

Type: Cargo ship. MMSI: 303683000.

Date/timePositionNaut miles runAvg speedWind from/ knotsBaromVisibWave heightAir tempDewpointWater temp
2015-Mar-01 03:33N 50°52' W 127°50'1212.0
2015-Mar-01 02:33N 50°48' W 127°33'1211.9
2015-Mar-01 01:33N 50°42' W 127°17'1212.2
2015-Mar-01 00:32N 50°36' W 126°59'1613.2
2015-Feb-28 23:21N 50°30' W 126°36'1113.0
2015-Feb-28 22:31N 50°29' W 126°19'6310.6
2015-Feb-28 16:32N 49°53' W 124°59'1212.0
2015-Feb-28 15:32N 49°45' W 124°45'1712.2
2015-Feb-28 14:09N 49°35' W 124°24'712.3
2015-Feb-28 13:33N 49°31' W 124°14'1212.0
2015-Feb-28 12:34N 49°24' W 123°59'1312.0
2015-Feb-28 11:29N 49°16' W 123°43'1112.1
2015-Feb-28 10:34N 49°09' W 123°30'1212.0
2015-Feb-28 09:33N 49°01' W 123°16'1212.3
2015-Feb-28 08:33N 48°53' W 123°02'1312.9
2015-Feb-28 07:33N 48°46' W 122°46'1212.0
2015-Feb-28 06:33N 48°34' W 122°45'1212.3
2015-Feb-28 05:33N 48°21' W 122°45'1010.1
2015-Feb-28 04:33N 48°11' W 122°45'1111.2
2015-Feb-28 03:33N 48°01' W 122°37'711.6
2015-Feb-28 02:57N 47°56' W 122°30'511.8
2015-Feb-28 02:33N 47°52' W 122°28'412.1
2015-Feb-28 02:12N 47°47' W 122°26'711.4
2015-Feb-28 01:33N 47°40' W 122°24'0 8.8
2015-Feb-28 01:32N 47°40' W 122°24'1 0.9
2015-Feb-27 23:55N 47°39' W 122°22'0 0.0
2015-Feb-27 23:33N 47°39' W 122°22'0 0.0
2015-Feb-27 23:30N 47°39' W 122°22'0 0.0
2015-Feb-27 22:33N 47°39' W 122°22'0 0.0
2015-Feb-27 22:30N 47°39' W 122°22'  
2015-Feb-23 01:45N 47°39' W 122°22'0 0.0
2015-Feb-23 01:33N 47°39' W 122°22'0 0.0
2015-Feb-23 01:31N 47°39' W 122°22'1 1.4
2015-Feb-23 00:32N 47°40' W 122°24'0 0.7
2015-Feb-23 00:31N 47°40' W 122°24'8 8.9
2015-Feb-22 23:34N 47°48' W 122°28'1111.4
2015-Feb-22 22:34N 47°58' W 122°36'1110.7
2015-Feb-22 21:32N 48°08' W 122°43'1110.7
2015-Feb-22 20:29N 48°12' W 122°59'910.0
2015-Feb-22 19:33N 48°12' W 123°13'9 9.3
2015-Feb-22 18:33N 48°13' W 123°27'10 9.5
2015-Feb-22 17:33N 48°14' W 123°41'1010.4
2015-Feb-22 16:34N 48°14' W 123°57'4511.2
2015-Feb-22 12:34N 48°28' W 125°00'1211.6
2015-Feb-22 11:33N 48°32' W 125°17'1110.9
2015-Feb-22 10:33N 48°38' W 125°30'1211.5
2015-Feb-22 09:34N 48°44' W 125°45'1111.3
2015-Feb-22 08:34N 48°51' W 125°58'1110.9
2015-Feb-22 07:34N 48°57' W 126°13'1111.2
2015-Feb-22 06:33N 49°03' W 126°27'1211.6
2015-Feb-22 05:33N 49°10' W 126°42'1211.6
2015-Feb-22 04:33N 49°17' W 126°56'1211.9
2015-Feb-22 03:33N 49°24' W 127°10'1211.8
2015-Feb-22 02:34N 49°32' W 127°24'1211.7
2015-Feb-22 01:33N 49°39' W 127°38'  
Track history (hours):
 
Tides and Currents Weather Stations Pressure Air Temp Water Temp Dewpoint Dewpoint Depression Visibility Wind Speed Wind Dir Waves Ship Positions

Coastal Nomad

Owner: Coastal Transportation, Inc., Seattle, WA. More information available from US FCC via Universal Licensing System and Coast Guard Vessel Documentation Center.

Last reported at 2015-Mar-01 03:33 UTC. Time now 2015-Mar-01 20:56 UTC.
Position N 50°52' W 127°50'.

Length 74 m; draft 4.9 m.

Type: Cargo ship. MMSI: 303683000.

Date/timePositionNaut miles runAvg speedWind from/ knotsBaromVisibWave heightAir tempDewpointWater temp
2015-Mar-01 03:33N 50°52' W 127°50'1212.0
2015-Mar-01 02:33N 50°48' W 127°33'1211.9
2015-Mar-01 01:33N 50°42' W 127°17'1212.2
2015-Mar-01 00:32N 50°36' W 126°59'1613.2
2015-Feb-28 23:21N 50°30' W 126°36'1113.0
2015-Feb-28 22:31N 50°29' W 126°19'6310.6
2015-Feb-28 16:32N 49°53' W 124°59'1212.0
2015-Feb-28 15:32N 49°45' W 124°45'1712.2
2015-Feb-28 14:09N 49°35' W 124°24'712.3
2015-Feb-28 13:33N 49°31' W 124°14'1212.0
2015-Feb-28 12:34N 49°24' W 123°59'1312.0
2015-Feb-28 11:29N 49°16' W 123°43'1112.1
2015-Feb-28 10:34N 49°09' W 123°30'1212.0
2015-Feb-28 09:33N 49°01' W 123°16'1212.3
2015-Feb-28 08:33N 48°53' W 123°02'1312.9
2015-Feb-28 07:33N 48°46' W 122°46'1212.0
2015-Feb-28 06:33N 48°34' W 122°45'1212.3
2015-Feb-28 05:33N 48°21' W 122°45'1010.1
2015-Feb-28 04:33N 48°11' W 122°45'1111.2
2015-Feb-28 03:33N 48°01' W 122°37'711.6
2015-Feb-28 02:57N 47°56' W 122°30'511.8
2015-Feb-28 02:33N 47°52' W 122°28'412.1
2015-Feb-28 02:12N 47°47' W 122°26'711.4
2015-Feb-28 01:33N 47°40' W 122°24'0 8.8
2015-Feb-28 01:32N 47°40' W 122°24'1 0.9
2015-Feb-27 23:55N 47°39' W 122°22'0 0.0
2015-Feb-27 23:33N 47°39' W 122°22'0 0.0
2015-Feb-27 23:30N 47°39' W 122°22'0 0.0
2015-Feb-27 22:33N 47°39' W 122°22'0 0.0
2015-Feb-27 22:30N 47°39' W 122°22'  
2015-Feb-23 01:45N 47°39' W 122°22'0 0.0
2015-Feb-23 01:33N 47°39' W 122°22'0 0.0
2015-Feb-23 01:31N 47°39' W 122°22'1 1.4
2015-Feb-23 00:32N 47°40' W 122°24'0 0.7
2015-Feb-23 00:31N 47°40' W 122°24'8 8.9
2015-Feb-22 23:34N 47°48' W 122°28'1111.4
2015-Feb-22 22:34N 47°58' W 122°36'1110.7
2015-Feb-22 21:32N 48°08' W 122°43'1110.7
2015-Feb-22 20:29N 48°12' W 122°59'910.0
2015-Feb-22 19:33N 48°12' W 123°13'9 9.3
2015-Feb-22 18:33N 48°13' W 123°27'10 9.5
2015-Feb-22 17:33N 48°14' W 123°41'1010.4
2015-Feb-22 16:34N 48°14' W 123°57'4511.2
2015-Feb-22 12:34N 48°28' W 125°00'1211.6
2015-Feb-22 11:33N 48°32' W 125°17'1110.9
2015-Feb-22 10:33N 48°38' W 125°30'1211.5
2015-Feb-22 09:34N 48°44' W 125°45'1111.3
2015-Feb-22 08:34N 48°51' W 125°58'1110.9
2015-Feb-22 07:34N 48°57' W 126°13'1111.2
2015-Feb-22 06:33N 49°03' W 126°27'1211.6
2015-Feb-22 05:33N 49°10' W 126°42'1211.6
2015-Feb-22 04:33N 49°17' W 126°56'1211.9
2015-Feb-22 03:33N 49°24' W 127°10'1211.8
2015-Feb-22 02:34N 49°32' W 127°24'1211.7
2015-Feb-22 01:33N 49°39' W 127°38'  

Dump ship's entire track history